Time;durP1;ratioP1;P1;durP2;ratioP2;P2;SDS_P1;SDS_P2;PMS_P1;PMS_P2;Temp;Humidity;BMP_temperature;BMP_pressure;BME280_temperature;BME280_humidity;BME280_pressure;Samples;Min_cycle;Max_cycle;Signal;HPM_P1;HPM_P2
2021/05/28 00:00:44;;;;;;;2.17;1.98;;;24.10;44.30;;;;;;5123593;28;20020;-42
2021/05/28 00:03:10;;;;;;;3.10;2.20;;;24.00;44.10;;;;;;5123623;28;20092;-43
2021/05/28 00:05:36;;;;;;;2.10;1.90;;;24.00;45.00;;;;;;5123421;28;20773;-42
2021/05/28 00:08:02;;;;;;;2.50;2.30;;;24.00;44.40;;;;;;5123678;28;20044;-44
2021/05/28 00:10:29;;;;;;;2.20;2.00;;;24.00;44.80;;;;;;5123756;28;20035;-42
2021/05/28 00:12:55;;;;;;;2.40;2.20;;;23.90;43.90;;;;;;5123538;28;20027;-42
2021/05/28 00:15:21;;;;;;;2.85;2.53;;;23.90;44.70;;;;;;5123894;28;20032;-42
2021/05/28 00:17:47;;;;;;;2.50;2.30;;;23.90;44.00;;;;;;5123467;28;20056;-41
2021/05/28 00:20:14;;;;;;;2.35;2.15;;;23.90;43.90;;;;;;5123842;28;20020;-42
2021/05/28 00:22:41;;;;;;;2.20;2.00;;;23.90;45.10;;;;;;5123573;28;20023;-44
2021/05/28 00:25:07;;;;;;;;;;;23.90;44.90;;;;;;5124143;28;20032;-46
2021/05/28 00:27:33;;;;;;;2.22;1.90;;;23.90;44.90;;;;;;5123733;28;19907;-41
2021/05/28 00:30:00;;;;;;;2.42;1.98;;;23.90;44.20;;;;;;5123702;28;20020;-42
2021/05/28 00:32:27;;;;;;;2.00;1.88;;;23.90;44.60;;;;;;5122953;28;20028;-41
2021/05/28 00:34:54;;;;;;;2.22;1.95;;;23.80;44.10;;;;;;5122220;28;20095;-42
2021/05/28 00:37:20;;;;;;;2.17;1.67;;;23.80;43.90;;;;;;5123042;28;20055;-44
2021/05/28 00:39:46;;;;;;;2.20;2.00;;;23.80;44.90;;;;;;5123556;28;20031;-42
2021/05/28 00:42:13;;;;;;;2.03;1.80;;;23.70;43.90;;;;;;5123305;28;20051;-42
2021/05/28 00:44:42;;;;;;;2.22;1.95;;;23.70;44.50;;;;;;5123730;28;20054;-43
2021/05/28 00:47:08;;;;;;;2.00;1.80;;;23.60;43.70;;;;;;5122071;28;20086;-45
2021/05/28 00:49:35;;;;;;;1.85;1.75;;;23.60;44.30;;;;;;5123686;28;20028;-42
2021/05/28 00:52:01;;;;;;;2.10;1.90;;;23.60;43.90;;;;;;5125511;28;20049;-42
2021/05/28 00:54:27;;;;;;;2.07;1.80;;;23.60;45.10;;;;;;5127121;28;20036;-43
2021/05/28 00:56:54;;;;;;;1.90;1.70;;;23.60;44.40;;;;;;5127393;28;20039;-43
2021/05/28 00:59:20;;;;;;;2.63;1.85;;;23.50;44.30;;;;;;5143276;27;20035;-42
2021/05/28 01:01:47;;;;;;;2.53;1.92;;;23.50;43.70;;;;;;5126760;28;20027;-42
2021/05/28 01:04:13;;;;;;;1.95;1.73;;;23.50;43.70;;;;;;5126919;28;20588;-41
2021/05/28 01:06:39;;;;;;;2.17;1.65;;;23.50;43.70;;;;;;5126871;28;20043;-42
2021/05/28 01:09:06;;;;;;;1.70;1.60;;;23.50;43.80;;;;;;5127297;28;20055;-42
2021/05/28 01:11:32;;;;;;;1.80;1.70;;;23.50;43.90;;;;;;5126342;28;20092;-41
2021/05/28 01:13:59;;;;;;;1.97;1.77;;;23.50;44.10;;;;;;5127125;28;20116;-42
2021/05/28 01:16:25;;;;;;;1.70;1.60;;;23.50;44.20;;;;;;5126716;28;20035;-42
2021/05/28 01:18:52;;;;;;;2.22;1.80;;;23.40;44.00;;;;;;5126808;28;20027;-42
2021/05/28 01:21:19;;;;;;;1.40;1.30;;;23.40;44.50;;;;;;5126929;28;20015;-42
2021/05/28 01:23:45;;;;;;;1.65;1.55;;;23.40;44.30;;;;;;5126621;28;20372;-41
2021/05/28 01:26:11;;;;;;;1.92;1.55;;;23.40;44.40;;;;;;5126616;28;20495;-41
2021/05/28 01:28:37;;;;;;;1.55;1.45;;;23.30;43.90;;;;;;5126783;28;20038;-41
2021/05/28 01:31:04;;;;;;;1.75;1.65;;;23.20;44.10;;;;;;5125271;28;20055;-43
2021/05/28 01:33:30;;;;;;;1.50;1.40;;;23.20;44.10;;;;;;5126025;28;20040;-42
2021/05/28 01:35:58;;;;;;;1.65;1.55;;;23.20;43.90;;;;;;5126122;28;20043;-42
2021/05/28 01:38:25;;;;;;;1.67;1.45;;;23.20;43.90;;;;;;5126650;28;20028;-41
2021/05/28 01:40:51;;;;;;;1.42;1.33;;;23.20;44.00;;;;;;5126365;28;20049;-44
2021/05/28 01:43:18;;;;;;;1.45;1.35;;;23.10;43.70;;;;;;5126244;28;20031;-42
2021/05/28 01:45:44;;;;;;;1.58;1.48;;;23.10;43.80;;;;;;5126188;28;20032;-41
2021/05/28 01:48:10;;;;;;;2.22;1.52;;;23.10;43.90;;;;;;5126520;28;20054;-43
2021/05/28 01:50:45;;;;;;;1.95;1.40;;;23.10;43.90;;;;;;5126242;28;20024;-42
2021/05/28 01:53:16;;;;;;;1.40;1.30;;;23.10;44.00;;;;;;5125525;28;20035;-42
2021/05/28 01:55:42;;;;;;;1.33;1.23;;;23.10;44.20;;;;;;5126240;28;20228;-42
2021/05/28 01:58:12;;;;;;;1.50;1.40;;;23.00;44.20;;;;;;5125973;28;20032;-41
2021/05/28 02:00:39;;;;;;;1.70;1.60;;;23.00;44.10;;;;;;5125902;28;20102;-41
2021/05/28 02:03:05;;;;;;;2.00;1.80;;;23.00;44.10;;;;;;5125230;28;20092;-42
2021/05/28 02:05:32;;;;;;;1.70;1.60;;;23.00;43.90;;;;;;5125999;28;20056;-41
2021/05/28 02:07:59;;;;;;;1.50;1.40;;;22.90;44.00;;;;;;5125386;28;20031;-42
2021/05/28 02:10:25;;;;;;;1.77;1.65;;;22.90;44.10;;;;;;5125725;28;20403;-42
2021/05/28 02:12:52;;;;;;;1.40;1.30;;;22.90;44.20;;;;;;5124007;28;20484;-42
2021/05/28 02:15:18;;;;;;;;;;;22.80;43.90;;;;;;5126366;28;20028;-42
2021/05/28 02:17:44;;;;;;;1.50;1.40;;;22.80;44.10;;;;;;5124332;28;19954;-43
2021/05/28 02:20:11;;;;;;;1.30;1.20;;;22.80;43.70;;;;;;5125619;28;20024;-42
2021/05/28 02:22:37;;;;;;;1.65;1.55;;;22.80;43.60;;;;;;5125521;28;20020;-42
2021/05/28 02:25:05;;;;;;;1.58;1.42;;;22.70;43.90;;;;;;5125410;28;20095;-41
2021/05/28 02:27:32;;;;;;;1.90;1.65;;;22.70;43.50;;;;;;5125222;28;20090;-42
2021/05/28 02:29:59;;;;;;;1.70;1.60;;;22.70;43.60;;;;;;5124702;28;20024;-42
2021/05/28 02:32:25;;;;;;;1.50;1.40;;;22.70;43.70;;;;;;5125398;28;20023;-42
2021/05/28 02:34:52;;;;;;;1.40;1.30;;;22.70;43.80;;;;;;5123737;28;20036;-42
2021/05/28 02:37:18;;;;;;;1.58;1.48;;;22.60;43.90;;;;;;5124859;27;20020;-41
2021/05/28 02:39:44;;;;;;;1.50;1.40;;;22.60;44.20;;;;;;5125226;28;20094;-43
2021/05/28 02:42:11;;;;;;;1.50;1.40;;;22.60;44.20;;;;;;5125094;28;20406;-41
2021/05/28 02:44:37;;;;;;;1.70;1.55;;;22.60;44.10;;;;;;5125035;27;20496;-41
2021/05/28 02:47:03;;;;;;;1.60;1.50;;;22.60;44.20;;;;;;5125298;28;20424;-42
2021/05/28 02:49:30;;;;;;;1.35;1.25;;;22.50;44.30;;;;;;5125112;28;20114;-41
2021/05/28 02:51:56;;;;;;;1.60;1.40;;;22.50;44.40;;;;;;5125178;28;20026;-41
2021/05/28 02:54:22;;;;;;;1.98;1.77;;;22.40;45.60;;;;;;5124081;28;20044;-42
2021/05/28 02:56:48;;;;;;;1.73;1.60;;;22.40;47.00;;;;;;5124604;28;20032;-42
2021/05/28 02:59:14;;;;;;;2.00;1.80;;;22.30;48.40;;;;;;5125143;28;20028;-42
2021/05/28 03:01:41;;;;;;;1.65;1.55;;;22.30;49.50;;;;;;5124637;28;20049;-42
2021/05/28 03:04:07;;;;;;;2.10;1.90;;;22.30;50.30;;;;;;5124350;28;20066;-43
2021/05/28 03:06:33;;;;;;;1.60;1.50;;;22.30;51.70;;;;;;5124267;28;20364;-44
2021/05/28 03:08:59;;;;;;;1.80;1.70;;;22.30;52.00;;;;;;5124674;28;20031;-41
2021/05/28 03:11:26;;;;;;;1.83;1.70;;;22.30;52.50;;;;;;5124697;28;20023;-42
2021/05/28 03:13:52;;;;;;;1.37;0.93;;;22.20;53.00;;;;;;5123150;28;20115;-42
2021/05/28 03:16:18;;;;;;;1.92;1.70;;;22.20;53.30;;;;;;5123070;28;20295;-44
2021/05/28 03:18:53;;;;;;;1.95;1.75;;;22.20;53.50;;;;;;5124664;28;20083;-41
2021/05/28 03:21:36;;;;;;;1.60;1.50;;;22.20;53.50;;;;;;5124296;28;20038;-42
2021/05/28 03:24:02;;;;;;;1.88;1.77;;;22.30;53.70;;;;;;5124108;28;20031;-43
2021/05/28 03:26:29;;;;;;;1.70;1.60;;;22.30;53.70;;;;;;5124085;28;20031;-44
2021/05/28 03:28:55;;;;;;;2.03;1.83;;;22.30;53.90;;;;;;5124453;28;20031;-43
2021/05/28 03:31:22;;;;;;;1.87;1.73;;;22.30;53.80;;;;;;5124171;28;20038;-44
2021/05/28 03:33:48;;;;;;;2.08;1.88;;;22.30;53.90;;;;;;5124061;27;20040;-42
2021/05/28 03:36:14;;;;;;;2.60;1.80;;;22.40;54.00;;;;;;5124177;28;20035;-45
2021/05/28 03:38:41;;;;;;;1.95;1.80;;;22.40;53.90;;;;;;5123637;28;20047;-42
2021/05/28 03:41:07;;;;;;;2.00;1.80;;;22.30;54.00;;;;;;5124068;28;20038;-41
2021/05/28 03:43:35;;;;;;;1.90;1.70;;;22.30;54.20;;;;;;5123804;28;20034;-43
2021/05/28 03:46:01;;;;;;;1.58;1.48;;;22.30;54.40;;;;;;5123901;28;20024;-42
2021/05/28 03:48:27;;;;;;;1.92;1.73;;;22.30;54.50;;;;;;5124016;28;20020;-43
2021/05/28 03:50:54;;;;;;;1.70;1.60;;;22.30;54.50;;;;;;5123937;28;20035;-42
2021/05/28 03:53:20;;;;;;;1.58;1.48;;;22.30;54.60;;;;;;5115377;28;20606;-43
2021/05/28 03:55:46;;;;;;;1.88;1.70;;;22.30;54.60;;;;;;5123324;28;20027;-43
2021/05/28 03:58:13;;;;;;;1.90;1.80;;;22.30;54.70;;;;;;5139558;27;20035;-42
2021/05/28 04:00:39;;;;;;;1.87;1.73;;;22.30;54.70;;;;;;5123768;28;20028;-41
2021/05/28 04:03:05;;;;;;;2.05;1.85;;;22.30;54.80;;;;;;5123610;28;20288;-43
2021/05/28 04:05:32;;;;;;;1.83;1.60;;;22.30;54.70;;;;;;5123576;28;20564;-42
2021/05/28 04:07:58;;;;;;;1.88;1.73;;;22.30;54.80;;;;;;5121660;28;20095;-42
2021/05/28 04:10:24;;;;;;;1.90;1.75;;;22.40;54.80;;;;;;5120644;28;20039;-43
2021/05/28 04:12:54;;;;;;;2.00;1.90;;;22.40;55.00;;;;;;5120718;28;20035;-41
2021/05/28 04:15:20;;;;;;;1.65;1.40;;;22.40;55.10;;;;;;5120762;28;20062;-44
2021/05/28 04:17:46;;;;;;;1.70;1.60;;;22.40;55.10;;;;;;5118856;28;20028;-43
2021/05/28 04:20:13;;;;;;;1.80;1.70;;;22.40;55.10;;;;;;5120773;28;20031;-42
2021/05/28 04:22:39;;;;;;;1.80;1.70;;;22.40;55.30;;;;;;5119215;28;20047;-42
2021/05/28 04:25:06;;;;;;;2.22;2.03;;;22.40;55.30;;;;;;5116190;28;20043;-42
2021/05/28 04:27:32;;;;;;;2.35;2.03;;;22.40;55.20;;;;;;5120802;28;20578;-43
2021/05/28 04:29:59;;;;;;;1.90;1.70;;;22.40;55.30;;;;;;5120015;27;20087;-42
2021/05/28 04:32:25;;;;;;;1.77;1.67;;;22.40;55.30;;;;;;5121664;28;20057;-42
2021/05/28 04:34:51;;;;;;;2.47;1.98;;;22.40;55.40;;;;;;5122034;27;20122;-43
2021/05/28 04:37:17;;;;;;;2.20;2.00;;;22.30;55.50;;;;;;5123493;28;20020;-44
2021/05/28 04:39:43;;;;;;;1.77;1.67;;;22.40;55.60;;;;;;5127389;28;20032;-45
2021/05/28 04:42:12;;;;;;;1.60;1.50;;;22.30;55.70;;;;;;5126485;28;20023;-44
2021/05/28 04:44:38;;;;;;;2.03;1.85;;;22.40;55.70;;;;;;5127221;27;20027;-45
2021/05/28 04:47:04;;;;;;;1.90;1.80;;;22.40;55.80;;;;;;5127331;28;20031;-43
2021/05/28 04:49:31;;;;;;;2.30;2.10;;;22.40;55.90;;;;;;5127298;28;20023;-45
2021/05/28 04:51:57;;;;;;;2.03;1.77;;;22.40;55.80;;;;;;5127244;28;20477;-43
2021/05/28 04:54:24;;;;;;;1.80;1.70;;;22.40;55.70;;;;;;5126798;28;20050;-42
2021/05/28 04:56:50;;;;;;;;;;;22.40;55.80;;;;;;5127350;28;20032;-43
2021/05/28 04:59:16;;;;;;;1.92;1.73;;;22.40;55.80;;;;;;5127200;27;19915;-43
2021/05/28 05:01:42;;;;;;;1.52;1.30;;;22.40;56.00;;;;;;5126958;28;20027;-43
2021/05/28 05:04:09;;;;;;;1.75;1.65;;;22.40;56.10;;;;;;5126823;28;20047;-42
2021/05/28 05:06:35;;;;;;;2.15;1.95;;;22.40;56.20;;;;;;5126797;28;20031;-44
2021/05/28 05:09:01;;;;;;;2.10;1.90;;;22.40;56.20;;;;;;5142623;27;20056;-42
2021/05/28 05:11:27;;;;;;;2.00;1.90;;;22.30;56.30;;;;;;5126934;28;20385;-43
2021/05/28 05:13:53;;;;;;;1.90;1.80;;;22.40;56.30;;;;;;5126808;28;20043;-42
2021/05/28 05:16:20;;;;;;;1.98;1.83;;;22.40;56.30;;;;;;5126526;28;20020;-43
2021/05/28 05:18:46;;;;;;;1.60;1.50;;;22.40;56.20;;;;;;5127004;28;20055;-44
2021/05/28 05:21:12;;;;;;;2.08;1.88;;;22.30;56.20;;;;;;5126190;28;20023;-43
2021/05/28 05:23:40;;;;;;;2.03;1.83;;;22.40;56.40;;;;;;5126452;28;20883;-44
2021/05/28 05:26:06;;;;;;;2.03;1.85;;;22.40;56.20;;;;;;5126399;28;20035;-45
2021/05/28 05:28:32;;;;;;;1.80;1.70;;;22.40;56.40;;;;;;5126653;28;20023;-41
2021/05/28 05:30:58;;;;;;;2.38;2.00;;;22.30;56.20;;;;;;5126518;28;20480;-42
2021/05/28 05:33:24;;;;;;;2.20;2.00;;;22.40;56.20;;;;;;5126175;28;20039;-42
2021/05/28 05:35:50;;;;;;;1.88;1.77;;;22.40;56.30;;;;;;5126179;28;20024;-42
2021/05/28 05:38:19;;;;;;;2.08;1.90;;;22.40;56.40;;;;;;5125479;28;20020;-43
2021/05/28 05:40:45;;;;;;;2.65;1.98;;;22.40;56.40;;;;;;5126241;28;20035;-45
2021/05/28 05:43:11;;;;;;;2.20;2.00;;;22.40;56.40;;;;;;5126441;28;20032;-42
2021/05/28 05:45:37;;;;;;;2.05;1.88;;;22.40;56.40;;;;;;5126064;28;20016;-41
2021/05/28 05:48:04;;;;;;;1.85;1.75;;;22.40;56.40;;;;;;5125824;28;20023;-43
2021/05/28 05:50:30;;;;;;;2.27;2.00;;;22.40;56.40;;;;;;5126191;28;20056;-43
2021/05/28 05:52:56;;;;;;;2.00;1.90;;;22.40;56.30;;;;;;5125813;28;20280;-42
2021/05/28 05:55:23;;;;;;;1.98;1.88;;;22.40;56.40;;;;;;5124536;28;20106;-43
2021/05/28 05:57:50;;;;;;;2.05;1.88;;;22.40;56.50;;;;;;5125878;28;20032;-42
2021/05/28 06:00:16;;;;;;;2.08;1.88;;;22.40;56.50;;;;;;5125917;28;20047;-43
2021/05/28 06:02:43;;;;;;;1.90;1.80;;;22.40;56.50;;;;;;5125622;28;20051;-44
2021/05/28 06:05:11;;;;;;;2.00;1.80;;;22.40;56.50;;;;;;5125898;28;20027;-42
2021/05/28 06:07:37;;;;;;;2.20;2.00;;;22.40;56.60;;;;;;5125370;28;20050;-42
2021/05/28 06:10:04;;;;;;;2.20;2.00;;;22.40;56.60;;;;;;5125644;28;20552;-43
2021/05/28 06:12:30;;;;;;;2.10;1.90;;;22.40;56.60;;;;;;5125775;28;20031;-42
2021/05/28 06:14:56;;;;;;;2.08;1.88;;;22.40;56.50;;;;;;5125613;28;20066;-44
2021/05/28 06:17:22;;;;;;;2.00;1.90;;;22.40;56.60;;;;;;5123622;28;20024;-42
2021/05/28 06:19:48;;;;;;;2.38;2.17;;;22.40;56.60;;;;;;5125628;28;20102;-46
2021/05/28 06:22:20;;;;;;;2.20;2.00;;;22.40;56.70;;;;;;5125499;28;20028;-42
2021/05/28 06:24:48;;;;;;;2.30;2.05;;;22.40;56.70;;;;;;5124922;28;20034;-44
2021/05/28 06:27:14;;;;;;;1.73;1.63;;;22.40;56.90;;;;;;5125091;28;20035;-42
2021/05/28 06:29:40;;;;;;;1.90;1.65;;;22.40;57.20;;;;;;5125176;28;20027;-43
2021/05/28 06:32:07;;;;;;;2.08;1.90;;;22.40;57.30;;;;;;5125007;28;20023;-46
2021/05/28 06:34:33;;;;;;;2.03;1.92;;;22.40;57.30;;;;;;5125455;28;20031;-42
2021/05/28 06:37:00;;;;;;;2.10;1.98;;;22.40;57.40;;;;;;5124955;27;20027;-44
2021/05/28 06:39:26;;;;;;;2.05;1.85;;;22.40;57.40;;;;;;5124965;28;20034;-42
2021/05/28 06:41:53;;;;;;;1.90;1.80;;;22.40;57.40;;;;;;5123761;28;20035;-43
2021/05/28 06:44:24;;;;;;;2.10;1.93;;;22.40;57.50;;;;;;5125091;28;20035;-42
2021/05/28 06:46:51;;;;;;;1.98;1.88;;;22.40;57.50;;;;;;5124478;28;20035;-44
2021/05/28 06:49:17;;;;;;;;;;;22.40;57.60;;;;;;5125344;28;20024;-45
2021/05/28 06:51:43;;;;;;;2.20;2.00;;;22.40;57.50;;;;;;5124856;28;19908;-43
2021/05/28 06:54:10;;;;;;;2.42;2.10;;;22.40;57.40;;;;;;5124555;28;20047;-43
2021/05/28 06:56:36;;;;;;;1.98;1.85;;;22.40;57.40;;;;;;5124753;28;20030;-44
2021/05/28 06:59:03;;;;;;;1.92;1.80;;;22.40;57.30;;;;;;5124730;28;20047;-43
2021/05/28 07:01:29;;;;;;;2.65;1.85;;;22.30;57.30;;;;;;5124294;28;20031;-45
2021/05/28 07:04:00;;;;;;;2.10;1.90;;;22.40;57.50;;;;;;5123164;28;20069;-42
2021/05/28 07:06:26;;;;;;;2.20;2.00;;;22.40;57.30;;;;;;5124570;28;20087;-43
2021/05/28 07:08:52;;;;;;;1.75;1.65;;;22.40;57.50;;;;;;5124257;28;20042;-45
2021/05/28 07:11:18;;;;;;;2.05;1.92;;;22.40;57.50;;;;;;5124650;28;20027;-45
2021/05/28 07:13:44;;;;;;;2.03;1.85;;;22.40;57.50;;;;;;5124024;28;20031;-46
2021/05/28 07:16:11;;;;;;;1.92;1.83;;;22.40;57.60;;;;;;5124269;28;20087;-43
2021/05/28 07:18:37;;;;;;;2.30;2.10;;;22.30;57.60;;;;;;5124018;28;20174;-43
2021/05/28 07:21:03;;;;;;;2.30;2.10;;;22.40;58.00;;;;;;5124455;28;20385;-43
2021/05/28 07:23:29;;;;;;;1.75;1.65;;;22.40;57.90;;;;;;5124106;28;20023;-45
2021/05/28 07:25:59;;;;;;;2.20;2.00;;;22.30;58.00;;;;;;5124468;28;20031;-43
2021/05/28 07:28:26;;;;;;;2.40;2.20;;;22.30;58.00;;;;;;5123930;28;20023;-43
2021/05/28 07:30:52;;;;;;;2.40;2.20;;;22.40;58.10;;;;;;5124234;28;20027;-43
2021/05/28 07:33:18;;;;;;;2.25;2.05;;;22.40;58.20;;;;;;5123946;28;20032;-43
2021/05/28 07:35:44;;;;;;;2.10;1.90;;;22.40;58.20;;;;;;5124074;28;20079;-45
2021/05/28 07:38:10;;;;;;;2.35;2.15;;;22.40;58.30;;;;;;5123837;28;20695;-43
2021/05/28 07:40:37;;;;;;;2.40;2.10;;;22.40;58.30;;;;;;5123630;28;20024;-43
2021/05/28 07:43:04;;;;;;;2.55;2.35;;;22.30;58.30;;;;;;5122348;28;20025;-42
2021/05/28 07:45:30;;;;;;;2.03;1.83;;;22.30;58.20;;;;;;5124226;28;20036;-43
2021/05/28 07:47:56;;;;;;;1.85;1.75;;;22.40;58.20;;;;;;5123758;28;20294;-44
2021/05/28 07:50:23;;;;;;;2.42;2.22;;;22.30;58.20;;;;;;5123732;28;20035;-46
2021/05/28 07:52:49;;;;;;;2.03;1.88;;;22.30;58.10;;;;;;5123449;28;20066;-44
2021/05/28 07:55:15;;;;;;;2.10;1.90;;;22.40;58.20;;;;;;5123657;28;20095;-43
2021/05/28 07:57:41;;;;;;;2.20;2.00;;;22.40;58.00;;;;;;5123951;28;20028;-44
2021/05/28 08:00:08;;;;;;;2.22;2.03;;;22.40;58.10;;;;;;5123178;28;20031;-43
2021/05/28 08:02:34;;;;;;;1.92;1.83;;;22.30;58.10;;;;;;5123335;28;20071;-45
2021/05/28 08:05:01;;;;;;;2.38;2.10;;;22.40;58.10;;;;;;5123788;28;20047;-43
2021/05/28 08:07:27;;;;;;;1.92;1.83;;;22.30;58.20;;;;;;5123779;28;20027;-45
2021/05/28 08:09:54;;;;;;;2.42;2.13;;;22.30;58.40;;;;;;5123364;28;20027;-43
2021/05/28 08:12:20;;;;;;;2.35;2.13;;;22.30;58.40;;;;;;5123466;28;20024;-43
2021/05/28 08:14:46;;;;;;;1.83;1.73;;;22.30;58.60;;;;;;5123676;28;20039;-43
2021/05/28 08:17:12;;;;;;;2.10;1.90;;;22.30;58.70;;;;;;5123363;28;20083;-42
2021/05/28 08:19:38;;;;;;;2.25;2.05;;;22.30;58.80;;;;;;5123556;28;20032;-43
2021/05/28 08:22:05;;;;;;;2.03;1.83;;;22.30;58.80;;;;;;5123327;28;20023;-43
2021/05/28 08:24:31;;;;;;;2.20;2.00;;;22.30;58.80;;;;;;5123349;28;20020;-44
2021/05/28 08:26:57;;;;;;;2.38;2.17;;;22.30;58.80;;;;;;5123205;28;20024;-43
2021/05/28 08:29:23;;;;;;;1.90;1.77;;;22.30;58.90;;;;;;5123082;28;20020;-42
2021/05/28 08:31:49;;;;;;;1.90;1.80;;;22.30;59.00;;;;;;5123036;28;20057;-43
2021/05/28 08:34:15;;;;;;;2.30;2.03;;;22.30;58.90;;;;;;5123383;28;20095;-43
2021/05/28 08:36:42;;;;;;;2.10;1.95;;;22.30;58.90;;;;;;5123580;28;20473;-45
2021/05/28 08:39:08;;;;;;;2.42;2.22;;;22.30;58.80;;;;;;5123286;28;20079;-42
2021/05/28 08:41:34;;;;;;;2.40;2.20;;;22.30;58.80;;;;;;5122989;28;20050;-43
2021/05/28 08:44:01;;;;;;;2.40;2.20;;;22.30;58.70;;;;;;5123456;28;20057;-44
2021/05/28 08:46:27;;;;;;;2.33;2.13;;;22.30;58.70;;;;;;5123337;28;20059;-43
2021/05/28 08:48:54;;;;;;;2.20;2.00;;;22.30;59.20;;;;;;5121936;28;20028;-42
2021/05/28 08:51:20;;;;;;;2.10;2.00;;;22.30;58.70;;;;;;5123081;28;20030;-43
2021/05/28 08:53:46;;;;;;;2.10;1.90;;;22.30;58.80;;;;;;5122851;28;20384;-44
2021/05/28 08:56:12;;;;;;;2.42;2.22;;;22.30;58.80;;;;;;5123335;28;20447;-44
2021/05/28 08:58:38;;;;;;;2.30;2.10;;;22.30;58.70;;;;;;5139092;28;20091;-46
2021/05/28 09:01:08;;;;;;;3.40;2.30;;;22.30;59.00;;;;;;5123035;28;20020;-43
2021/05/28 09:03:35;;;;;;;2.13;2.03;;;22.30;58.90;;;;;;5122459;28;20062;-44
2021/05/28 09:06:03;;;;;;;2.33;2.10;;;22.30;59.10;;;;;;5122895;28;20111;-43
2021/05/28 09:08:31;;;;;;;2.30;2.10;;;22.30;59.40;;;;;;5123213;28;20032;-43
2021/05/28 09:11:14;;;;;;;1.92;1.83;;;22.30;59.20;;;;;;5122160;28;20012;-43
2021/05/28 09:13:44;;;;;;;2.30;2.10;;;22.30;59.30;;;;;;5125663;28;20032;-44
2021/05/28 09:16:14;;;;;;;2.13;2.00;;;22.30;59.40;;;;;;5126781;28;20020;-46
2021/05/28 09:18:42;;;;;;;2.40;2.10;;;22.20;59.40;;;;;;5125365;28;20030;-42
2021/05/28 09:21:09;;;;;;;2.78;2.53;;;22.20;59.40;;;;;;5126754;28;20800;-43
2021/05/28 09:23:35;;;;;;;2.20;1.97;;;22.20;59.40;;;;;;5125974;28;20030;-43
2021/05/28 09:26:06;;;;;;;2.60;2.38;;;22.20;59.40;;;;;;5126570;28;20051;-43
2021/05/28 09:28:47;;;;;;;2.30;2.10;;;22.20;59.80;;;;;;5126699;28;20034;-44
2021/05/28 09:31:15;;;;;;;2.60;2.40;;;22.20;59.10;;;;;;5126580;28;20027;-42
2021/05/28 09:33:44;;;;;;;2.38;2.17;;;22.20;59.30;;;;;;5126183;28;20373;-46
2021/05/28 09:36:19;;;;;;;2.42;2.22;;;22.20;59.40;;;;;;5126288;28;20027;-43
2021/05/28 09:39:02;;;;;;;2.35;2.15;;;22.30;59.10;;;;;;5126391;28;20841;-43
2021/05/28 09:41:45;;;;;;;2.40;2.20;;;22.20;59.10;;;;;;5126340;28;20035;-46
2021/05/28 09:44:26;;;;;;;2.28;2.08;;;22.30;59.40;;;;;;5125883;28;20032;-42
2021/05/28 09:47:07;;;;;;;2.33;2.10;;;22.20;59.30;;;;;;5126298;28;20036;-45
2021/05/28 09:49:39;;;;;;;2.38;2.17;;;22.30;59.70;;;;;;5126140;28;20030;-43
2021/05/28 09:52:05;;;;;;;2.17;1.98;;;22.20;59.60;;;;;;5125721;28;20387;-43
2021/05/28 09:54:31;;;;;;;2.65;2.35;;;22.20;60.10;;;;;;5125750;28;20116;-43
2021/05/28 09:56:57;;;;;;;2.25;2.05;;;22.20;59.80;;;;;;5125904;28;20023;-42
2021/05/28 09:59:23;;;;;;;2.15;1.95;;;22.20;59.70;;;;;;5125576;28;20020;-44
2021/05/28 10:01:59;;;;;;;2.55;2.35;;;22.20;59.80;;;;;;5125836;28;20028;-43
2021/05/28 10:04:25;;;;;;;2.28;2.08;;;22.20;59.80;;;;;;5124048;28;20039;-43
2021/05/28 10:06:52;;;;;;;2.30;2.10;;;22.30;59.80;;;;;;5125841;28;20038;-50
2021/05/28 10:09:18;;;;;;;2.50;2.30;;;22.20;59.90;;;;;;5125764;28;20020;-45
2021/05/28 10:11:44;;;;;;;2.40;2.20;;;22.20;59.90;;;;;;5125640;28;20348;-42
2021/05/28 10:14:10;;;;;;;2.38;2.17;;;22.20;59.90;;;;;;5125423;28;20345;-43
2021/05/28 10:16:37;;;;;;;2.50;2.20;;;22.20;59.90;;;;;;5125421;28;20051;-42
2021/05/28 10:19:03;;;;;;;2.87;2.23;;;22.20;59.70;;;;;;5125777;28;20027;-43
2021/05/28 10:21:30;;;;;;;2.40;2.20;;;22.20;60.20;;;;;;5125382;28;20024;-43
2021/05/28 10:23:58;;;;;;;2.25;2.05;;;22.20;59.90;;;;;;5124862;28;20032;-43
2021/05/28 10:26:26;;;;;;;2.40;2.20;;;22.20;59.70;;;;;;5125337;28;20079;-44
2021/05/28 10:28:52;;;;;;;2.40;2.20;;;22.20;60.30;;;;;;5140987;27;20031;-44
2021/05/28 10:31:18;;;;;;;2.22;2.03;;;22.20;60.10;;;;;;5123934;28;20027;-44
2021/05/28 10:33:53;;;;;;;2.30;2.10;;;22.20;60.10;;;;;;5124832;28;20035;-45
2021/05/28 10:36:45;;;;;;;2.50;2.30;;;22.20;60.50;;;;;;5124014;28;20038;-43
2021/05/28 10:39:12;;;;;;;2.40;2.20;;;22.20;60.50;;;;;;5125189;28;20392;-44
2021/05/28 10:41:39;;;;;;;2.10;1.90;;;22.20;60.40;;;;;;5125131;28;20030;-45
2021/05/28 10:44:07;;;;;;;2.35;2.15;;;22.20;60.30;;;;;;5124927;27;20032;-43
2021/05/28 10:46:34;;;;;;;2.33;2.13;;;22.20;60.40;;;;;;5125091;28;20026;-43
2021/05/28 10:49:07;;;;;;;2.30;2.10;;;22.20;60.50;;;;;;5123557;28;20032;-43
2021/05/28 10:51:33;;;;;;;2.38;2.10;;;22.20;60.80;;;;;;5125197;28;20073;-43
2021/05/28 10:53:59;;;;;;;2.10;2.00;;;22.20;60.90;;;;;;5124246;28;20107;-44
2021/05/28 10:56:26;;;;;;;2.50;2.30;;;22.20;60.70;;;;;;5124872;28;20035;-43
2021/05/28 10:58:53;;;;;;;2.13;1.92;;;22.20;60.80;;;;;;5125127;28;20115;-43
2021/05/28 11:01:34;;;;;;;2.38;2.15;;;22.20;60.60;;;;;;5124775;28;20065;-43
2021/05/28 11:04:03;;;;;;;2.08;1.88;;;22.20;60.50;;;;;;5123522;28;20055;-44
2021/05/28 11:06:30;;;;;;;2.13;2.03;;;22.20;60.50;;;;;;5124808;28;20020;-46
2021/05/28 11:09:03;;;;;;;2.22;2.03;;;22.20;60.30;;;;;;5124640;28;20056;-44
2021/05/28 11:11:38;;;;;;;2.92;2.63;;;22.20;60.50;;;;;;5124595;28;20043;-45
2021/05/28 11:14:11;;;;;;;2.25;2.05;;;22.20;60.70;;;;;;5124246;28;20036;-42
2021/05/28 11:16:53;;;;;;;2.13;1.92;;;22.20;60.60;;;;;;5124675;28;20023;-43
2021/05/28 11:19:29;;;;;;;2.50;2.30;;;22.20;60.90;;;;;;5124352;28;20039;-44
2021/05/28 11:22:00;;;;;;;2.38;2.17;;;22.20;61.00;;;;;;5124594;28;20016;-46
2021/05/28 11:24:59;;;;;;;2.30;2.10;;;22.20;61.30;;;;;;5124023;28;20035;-42
2021/05/28 11:27:25;;;;;;;2.30;2.10;;;22.20;61.10;;;;;;5124040;28;20031;-43
2021/05/28 11:30:15;;;;;;;2.75;2.55;;;22.20;61.10;;;;;;5124171;28;20020;-44
2021/05/28 11:32:44;;;;;;;2.08;1.98;;;22.20;61.10;;;;;;5116225;28;20095;-44
2021/05/28 11:35:17;;;;;;;2.33;2.13;;;22.10;60.90;;;;;;5123173;28;20031;-43
2021/05/28 11:37:50;;;;;;;2.15;1.95;;;22.10;61.10;;;;;;5124164;28;20024;-44
2021/05/28 11:40:30;;;;;;;2.30;2.10;;;22.10;61.10;;;;;;5124151;28;20047;-43
2021/05/28 11:43:06;;;;;;;2.33;2.13;;;22.10;61.20;;;;;;5124227;28;20042;-43
2021/05/28 11:45:33;;;;;;;2.42;2.22;;;22.20;61.30;;;;;;5123843;28;20026;-43
2021/05/28 11:47:59;;;;;;;1.95;1.75;;;22.20;61.30;;;;;;5123864;28;20035;-42
2021/05/28 11:50:26;;;;;;;2.42;2.22;;;22.10;61.20;;;;;;5124198;28;20059;-44
2021/05/28 11:52:57;;;;;;;2.42;2.22;;;22.10;61.20;;;;;;5123660;28;20020;-43
2021/05/28 11:55:23;;;;;;;1.90;1.80;;;22.20;61.00;;;;;;5123613;28;20421;-45
2021/05/28 11:57:59;;;;;;;2.08;1.92;;;22.10;60.90;;;;;;5123689;28;20107;-42
2021/05/28 12:00:26;;;;;;;2.30;2.10;;;22.10;61.00;;;;;;5123968;28;20088;-43
2021/05/28 12:02:55;;;;;;;2.23;2.03;;;22.20;60.90;;;;;;5123353;28;20043;-44
2021/05/28 12:05:30;;;;;;;2.20;2.00;;;22.10;61.10;;;;;;5123409;28;20068;-44
2021/05/28 12:08:01;;;;;;;2.58;2.38;;;22.10;60.90;;;;;;5123897;28;20048;-43
2021/05/28 12:10:28;;;;;;;2.63;2.42;;;22.10;61.00;;;;;;5123882;28;20015;-43
2021/05/28 12:13:09;;;;;;;2.20;2.00;;;22.20;61.30;;;;;;5123665;28;20032;-44
2021/05/28 12:15:39;;;;;;;2.10;1.90;;;22.10;61.10;;;;;;5123481;28;20042;-43
2021/05/28 12:18:23;;;;;;;2.45;2.25;;;22.20;61.30;;;;;;5123703;28;20024;-42
2021/05/28 12:20:58;;;;;;;2.25;2.05;;;22.10;61.50;;;;;;5124101;28;20106;-45
2021/05/28 12:23:27;;;;;;;2.28;2.08;;;22.20;61.50;;;;;;5123349;28;20035;-43
2021/05/28 12:26:00;;;;;;;2.47;2.28;;;22.20;61.80;;;;;;5123459;27;20019;-43
2021/05/28 12:28:28;;;;;;;1.88;1.77;;;22.20;61.90;;;;;;5123161;28;20030;-43
2021/05/28 12:30:56;;;;;;;2.30;2.10;;;22.20;61.80;;;;;;5123655;28;20051;-48
2021/05/28 12:33:29;;;;;;;2.50;2.30;;;22.20;61.70;;;;;;5123502;28;20038;-43
2021/05/28 12:35:56;;;;;;;2.40;2.20;;;22.20;62.20;;;;;;5123364;28;20105;-44
2021/05/28 12:38:24;;;;;;;2.30;2.10;;;22.20;62.10;;;;;;5123615;28;20034;-45
2021/05/28 12:40:51;;;;;;;3.17;2.50;;;22.20;61.90;;;;;;5123768;28;20056;-44
2021/05/28 12:43:28;;;;;;;2.40;2.20;;;22.20;61.70;;;;;;5122400;28;20051;-43
2021/05/28 12:45:54;;;;;;;2.30;2.10;;;22.20;61.50;;;;;;5123467;28;20399;-43
2021/05/28 12:48:21;;;;;;;2.50;2.30;;;22.30;61.90;;;;;;5127436;28;20024;-44
2021/05/28 12:50:49;;;;;;;2.23;2.03;;;22.30;61.10;;;;;;5127738;28;20044;-42